Time;durP1;ratioP1;P1;durP2;ratioP2;P2;SDS_P1;SDS_P2;PMS_P1;PMS_P2;Temp;Humidity;BMP_temperature;BMP_pressure;BME280_temperature;BME280_humidity;BME280_pressure;Samples;Min_cycle;Max_cycle;Signal;HPM_P1;HPM_P2
2021/09/22 00:00:11;;;;;;;;;35.00;32.00;;;;;;;;4991782;28;45426;-70
2021/09/22 00:02:37;;;;;;;;;34.00;32.00;;;;;;;;4991276;28;46176;-68
2021/09/22 00:05:02;;;;;;;;;36.50;32.25;;;;;;;;4991811;28;45485;-69
2021/09/22 00:07:27;;;;;;;;;44.50;34.25;;;;;;;;4990550;28;45447;-69
2021/09/22 00:09:52;;;;;;;;;32.25;29.00;;;;;;;;4994170;28;45402;-71
2021/09/22 00:12:17;;;;;;;;;34.25;31.00;;;;;;;;4990463;28;46142;-69
2021/09/22 00:14:43;;;;;;;;;40.25;34.75;;;;;;;;4992062;28;45426;-71
2021/09/22 00:17:09;;;;;;;;;33.50;32.50;;;;;;;;4991787;28;45501;-70
2021/09/22 00:19:34;;;;;;;;;33.00;28.50;;;;;;;;4992124;28;45434;-71
2021/09/22 00:21:59;;;;;;;;;37.50;29.75;;;;;;;;4991831;28;46313;-69
2021/09/22 00:24:24;;;;;;;;;35.50;31.50;;;;;;;;4992426;28;45541;-71
2021/09/22 00:26:49;;;;;;;;;36.00;33.25;;;;;;;;4991946;28;45346;-71
2021/09/22 00:29:15;;;;;;;;;34.50;30.50;;;;;;;;4991953;28;45456;-70
2021/09/22 00:31:40;;;;;;;;;35.75;30.75;;;;;;;;4991501;28;45498;-70
2021/09/22 00:34:05;;;;;;;;;38.00;31.25;;;;;;;;4992810;28;45335;-71
2021/09/22 00:36:30;;;;;;;;;32.25;28.25;;;;;;;;4991341;28;45434;-71
2021/09/22 00:38:56;;;;;;;;;37.50;28.75;;;;;;;;4991858;28;45341;-71
2021/09/22 00:41:21;;;;;;;;;29.00;27.75;;;;;;;;4991459;28;47291;-72
2021/09/22 00:43:46;;;;;;;;;32.25;29.50;;;;;;;;4991648;28;45467;-71
2021/09/22 00:46:11;;;;;;;;;35.75;31.50;;;;;;;;4992218;28;45366;-71
2021/09/22 00:48:37;;;;;;;;;48.75;38.75;;;;;;;;4991434;28;45244;-71
2021/09/22 00:51:03;;;;;;;;;35.75;32.25;;;;;;;;4989838;28;46037;-71
2021/09/22 00:53:29;;;;;;;;;37.75;30.50;;;;;;;;4991549;28;45368;-71
2021/09/22 00:55:54;;;;;;;;;35.00;31.25;;;;;;;;4991547;28;45462;-71
2021/09/22 00:58:19;;;;;;;;;34.00;31.50;;;;;;;;4991369;28;45710;-71
2021/09/22 01:00:44;;;;;;;;;35.50;29.00;;;;;;;;4993033;28;45363;-71
2021/09/22 01:03:09;;;;;;;;;37.50;33.75;;;;;;;;4991393;28;45500;-70
2021/09/22 01:05:37;;;;;;;;;37.25;32.75;;;;;;;;4991285;28;45257;-71
2021/09/22 01:08:05;;;;;;;;;40.50;32.50;;;;;;;;4991188;28;45257;-71
2021/09/22 01:10:31;;;;;;;;;37.50;34.00;;;;;;;;4991306;28;47001;-71
2021/09/22 01:12:56;;;;;;;;;32.50;29.25;;;;;;;;4993167;28;45283;-71
2021/09/22 01:15:28;;;;;;;;;31.50;29.75;;;;;;;;4991152;28;45258;-70
2021/09/22 01:17:54;;;;;;;;;34.50;31.75;;;;;;;;4990980;28;45604;-71
2021/09/22 01:20:19;;;;;;;;;38.50;33.00;;;;;;;;4990816;28;46228;-71
2021/09/22 01:22:44;;;;;;;;;44.00;36.50;;;;;;;;4973409;28;46002;-71
2021/09/22 01:25:11;;;;;;;;;37.25;34.50;;;;;;;;4992115;28;45370;-71
2021/09/22 01:27:47;;;;;;;;;43.25;35.75;;;;;;;;4991141;28;45340;-71
2021/09/22 01:30:12;;;;;;;;;43.50;33.50;;;;;;;;4989201;28;46471;-70
2021/09/22 01:32:46;;;;;;;;;42.75;34.50;;;;;;;;4990805;28;45394;-70
2021/09/22 01:35:11;;;;;;;;;37.00;31.75;;;;;;;;4991211;28;45508;-70
2021/09/22 01:37:36;;;;;;;;;36.25;33.00;;;;;;;;4990962;28;45442;-69
2021/09/22 01:40:02;;;;;;;;;39.75;34.00;;;;;;;;4992454;28;46435;-72
2021/09/22 01:42:27;;;;;;;;;38.00;32.50;;;;;;;;4991747;28;45410;-71
2021/09/22 01:44:52;;;;;;;;;42.50;37.00;;;;;;;;4990651;28;45364;-69
2021/09/22 01:47:17;;;;;;;;;45.00;36.00;;;;;;;;4990811;28;45580;-70
2021/09/22 01:49:42;;;;;;;;;39.00;30.50;;;;;;;;4990387;28;45542;-69
2021/09/22 01:52:08;;;;;;;;;40.75;35.75;;;;;;;;4991457;28;45650;-70
2021/09/22 01:54:33;;;;;;;;;40.25;33.00;;;;;;;;4992522;28;45405;-69
2021/09/22 01:56:58;;;;;;;;;41.50;34.75;;;;;;;;4990697;28;45540;-71
2021/09/22 01:59:23;;;;;;;;;39.00;33.75;;;;;;;;4990408;28;46178;-70
2021/09/22 02:01:48;;;;;;;;;36.75;31.75;;;;;;;;4990991;28;45488;-70
2021/09/22 02:04:14;;;;;;;;;38.00;34.00;;;;;;;;4991271;28;45339;-70
2021/09/22 02:06:39;;;;;;;;;36.00;32.50;;;;;;;;4991132;28;45431;-70
2021/09/22 02:09:04;;;;;;;;;42.75;35.00;;;;;;;;4989034;28;47336;-69
2021/09/22 02:11:30;;;;;;;;;31.25;30.00;;;;;;;;4990617;28;45275;-70
2021/09/22 02:13:55;;;;;;;;;34.75;31.25;;;;;;;;4990259;28;45547;-70
2021/09/22 02:16:20;;;;;;;;;40.75;33.00;;;;;;;;4988617;27;45513;-70
2021/09/22 02:18:45;;;;;;;;;38.50;33.25;;;;;;;;4990729;28;46113;-70
2021/09/22 02:21:10;;;;;;;;;40.00;33.00;;;;;;;;4989449;28;45381;-70
2021/09/22 02:23:39;;;;;;;;;38.50;35.25;;;;;;;;4989912;28;45717;-70
2021/09/22 02:26:05;;;;;;;;;33.75;32.50;;;;;;;;4990272;28;45442;-70
2021/09/22 02:28:30;;;;;;;;;36.50;27.50;;;;;;;;4989790;28;46342;-70
2021/09/22 02:30:55;;;;;;;;;43.50;34.25;;;;;;;;4992306;28;45457;-69
2021/09/22 02:33:20;;;;;;;;;36.75;32.75;;;;;;;;4990238;28;45297;-70
2021/09/22 02:35:46;;;;;;;;;44.25;38.00;;;;;;;;4990215;28;45518;-69
2021/09/22 02:38:11;;;;;;;;;40.75;35.50;;;;;;;;4990062;28;47148;-70
2021/09/22 02:40:36;;;;;;;;;41.50;33.50;;;;;;;;4990194;28;45467;-70
2021/09/22 02:43:01;;;;;;;;;37.25;33.25;;;;;;;;4990823;28;45405;-70
2021/09/22 02:45:27;;;;;;;;;38.00;32.75;;;;;;;;4991924;28;45480;-70
2021/09/22 02:47:52;;;;;;;;;32.75;29.50;;;;;;;;4991109;28;45511;-70
2021/09/22 02:50:18;;;;;;;;;38.50;34.50;;;;;;;;4992573;28;45462;-71
2021/09/22 02:52:44;;;;;;;;;36.75;34.75;;;;;;;;4992846;28;45445;-70
2021/09/22 02:55:09;;;;;;;;;46.50;35.00;;;;;;;;4993124;28;45472;-70
2021/09/22 02:57:35;;;;;;;;;42.00;36.00;;;;;;;;4993951;28;45399;-70
2021/09/22 03:00:02;;;;;;;;;39.75;35.50;;;;;;;;4992610;28;45570;-71
2021/09/22 03:02:27;;;;;;;;;36.00;32.25;;;;;;;;4992691;28;45480;-70
2021/09/22 03:04:52;;;;;;;;;39.00;35.50;;;;;;;;4992953;28;45356;-70
2021/09/22 03:07:18;;;;;;;;;39.00;33.25;;;;;;;;4992775;28;46301;-70
2021/09/22 03:09:43;;;;;;;;;38.75;32.00;;;;;;;;4977093;28;45221;-70
2021/09/22 03:12:08;;;;;;;;;40.00;35.50;;;;;;;;4974820;28;45306;-70
2021/09/22 03:14:33;;;;;;;;;36.75;32.00;;;;;;;;4992451;28;45633;-70
2021/09/22 03:16:58;;;;;;;;;33.50;31.50;;;;;;;;4992272;28;47498;-70
2021/09/22 03:19:24;;;;;;;;;36.75;33.00;;;;;;;;4992662;28;45325;-70
2021/09/22 03:21:49;;;;;;;;;40.25;34.75;;;;;;;;4994660;28;45348;-71
2021/09/22 03:24:14;;;;;;;;;47.75;38.00;;;;;;;;4990448;28;45560;-71
2021/09/22 03:26:39;;;;;;;;;36.75;32.00;;;;;;;;4990311;28;45949;-68
2021/09/22 03:29:04;;;;;;;;;39.00;36.00;;;;;;;;4991827;28;45362;-70
2021/09/22 03:31:30;;;;;;;;;45.50;37.00;;;;;;;;4992772;28;45338;-71
2021/09/22 03:33:55;;;;;;;;;38.50;34.75;;;;;;;;4994457;28;45398;-70
2021/09/22 03:36:20;;;;;;;;;36.50;32.00;;;;;;;;4991895;28;46155;-71
2021/09/22 03:38:45;;;;;;;;;34.75;32.25;;;;;;;;4992322;28;45315;-71
2021/09/22 03:41:10;;;;;;;;;45.75;37.50;;;;;;;;4991925;28;45276;-72
2021/09/22 03:43:36;;;;;;;;;41.50;37.50;;;;;;;;4992297;28;45350;-70
2021/09/22 03:46:01;;;;;;;;;43.25;36.00;;;;;;;;4993114;28;46837;-70
2021/09/22 03:48:27;;;;;;;;;39.25;33.25;;;;;;;;4992309;28;45362;-70
2021/09/22 03:50:52;;;;;;;;;42.00;33.00;;;;;;;;4991925;28;45486;-70
2021/09/22 03:53:19;;;;;;;;;43.75;38.00;;;;;;;;4992128;28;45537;-70
2021/09/22 03:55:44;;;;;;;;;40.25;34.50;;;;;;;;4991349;28;46171;-71
2021/09/22 03:58:09;;;;;;;;;46.50;36.25;;;;;;;;4992294;28;45496;-71
2021/09/22 04:00:35;;;;;;;;;41.00;34.50;;;;;;;;4993806;28;45609;-71
2021/09/22 04:03:00;;;;;;;;;69.33;54.67;;;;;;;;4990412;28;45544;-70
2021/09/22 04:05:25;;;;;;;;;46.25;37.75;;;;;;;;4990218;28;45377;-69
2021/09/22 04:07:50;;;;;;;;;44.25;37.00;;;;;;;;4991792;28;45422;-70
2021/09/22 04:10:15;;;;;;;;;47.00;38.00;;;;;;;;4991693;28;45389;-70
2021/09/22 04:12:41;;;;;;;;;44.75;37.00;;;;;;;;4993670;28;45457;-70
2021/09/22 04:15:06;;;;;;;;;42.50;37.25;;;;;;;;4991228;28;46125;-69
2021/09/22 04:17:31;;;;;;;;;50.00;40.25;;;;;;;;4991500;28;45394;-71
2021/09/22 04:19:56;;;;;;;;;45.00;36.50;;;;;;;;4991742;28;45351;-70
2021/09/22 04:22:22;;;;;;;;;42.00;36.25;;;;;;;;4991625;28;45268;-70
2021/09/22 04:24:47;;;;;;;;;45.50;36.00;;;;;;;;4993141;28;47181;-70
2021/09/22 04:27:12;;;;;;;;;46.00;37.75;;;;;;;;4991237;28;45735;-70
2021/09/22 04:29:37;;;;;;;;;44.75;36.75;;;;;;;;4991083;28;45497;-71
2021/09/22 04:32:03;;;;;;;;;45.50;37.50;;;;;;;;4991073;28;45360;-71
2021/09/22 04:34:28;;;;;;;;;51.75;40.50;;;;;;;;4991176;28;45343;-71
2021/09/22 04:36:53;;;;;;;;;46.50;37.00;;;;;;;;4993053;28;45516;-71
2021/09/22 04:39:18;;;;;;;;;49.50;39.25;;;;;;;;4973028;28;45498;-71
2021/09/22 04:41:43;;;;;;;;;59.00;43.50;;;;;;;;4989486;28;45474;-71
2021/09/22 04:44:09;;;;;;;;;41.75;39.00;;;;;;;;4989119;28;46148;-71
2021/09/22 04:46:34;;;;;;;;;49.50;38.00;;;;;;;;4991175;28;45468;-71
2021/09/22 04:49:00;;;;;;;;;36.75;35.50;;;;;;;;4974406;28;45384;-70
2021/09/22 04:51:25;;;;;;;;;64.25;49.75;;;;;;;;4991529;28;45399;-70
2021/09/22 04:53:50;;;;;;;;;54.75;43.75;;;;;;;;4990229;28;46156;-71
2021/09/22 04:56:15;;;;;;;;;46.00;40.00;;;;;;;;4990802;28;45336;-71
2021/09/22 04:58:41;;;;;;;;;48.00;39.25;;;;;;;;4990958;28;45306;-70
2021/09/22 05:01:06;;;;;;;;;51.75;38.25;;;;;;;;4991750;28;45361;-71
2021/09/22 05:03:31;;;;;;;;;39.50;34.25;;;;;;;;4974460;28;46168;-70
2021/09/22 05:05:57;;;;;;;;;45.75;37.00;;;;;;;;4990621;28;45388;-72
2021/09/22 05:08:22;;;;;;;;;40.00;36.00;;;;;;;;4989465;28;45416;-72
2021/09/22 05:10:47;;;;;;;;;44.50;37.00;;;;;;;;4990413;28;45776;-69
2021/09/22 05:13:12;;;;;;;;;38.00;33.25;;;;;;;;4989973;28;46478;-71
2021/09/22 05:15:38;;;;;;;;;44.75;40.00;;;;;;;;4992351;28;45398;-70
2021/09/22 05:18:03;;;;;;;;;41.00;34.25;;;;;;;;4989404;28;45398;-70
2021/09/22 05:20:28;;;;;;;;;47.50;37.25;;;;;;;;4988287;28;45467;-70
2021/09/22 05:22:53;;;;;;;;;51.25;38.25;;;;;;;;4988020;28;46002;-70
2021/09/22 05:25:18;;;;;;;;;47.50;37.50;;;;;;;;4990073;28;45381;-70
2021/09/22 05:27:46;;;;;;;;;47.75;40.25;;;;;;;;4992104;28;45389;-71
2021/09/22 05:30:11;;;;;;;;;42.25;36.00;;;;;;;;4989473;28;45386;-72
2021/09/22 05:32:36;;;;;;;;;46.00;36.00;;;;;;;;4994314;27;47196;-71
2021/09/22 05:35:02;;;;;;;;;47.75;38.00;;;;;;;;4989838;28;45305;-71
2021/09/22 05:37:29;;;;;;;;;46.50;37.25;;;;;;;;4989282;28;45350;-71
2021/09/22 05:39:54;;;;;;;;;48.25;39.50;;;;;;;;4991864;28;45361;-72
2021/09/22 05:42:20;;;;;;;;;49.50;41.00;;;;;;;;5017774;27;46184;-72
2021/09/22 05:44:45;;;;;;;;;40.00;33.25;;;;;;;;5028736;27;45503;-71
2021/09/22 05:47:10;;;;;;;;;51.50;36.00;;;;;;;;5018326;27;45452;-69
2021/09/22 05:49:35;;;;;;;;;48.75;38.75;;;;;;;;4984530;28;45366;-70
2021/09/22 05:52:00;;;;;;;;;49.75;38.50;;;;;;;;4990291;28;47235;-71
2021/09/22 05:54:26;;;;;;;;;47.00;38.75;;;;;;;;4972371;28;45322;-70
2021/09/22 05:56:51;;;;;;;;;46.25;38.00;;;;;;;;4989314;28;45520;-69
2021/09/22 05:59:16;;;;;;;;;50.00;40.50;;;;;;;;4987894;28;45262;-69
2021/09/22 06:01:42;;;;;;;;;48.25;36.50;;;;;;;;4988403;28;45938;-71
2021/09/22 06:04:07;;;;;;;;;45.00;34.75;;;;;;;;4989985;28;45391;-70
2021/09/22 06:06:33;;;;;;;;;48.25;35.25;;;;;;;;4990590;28;45296;-69
2021/09/22 06:08:58;;;;;;;;;46.25;37.00;;;;;;;;4988783;28;45305;-70
2021/09/22 06:11:23;;;;;;;;;51.50;40.00;;;;;;;;4989326;27;46151;-71
2021/09/22 06:13:52;;;;;;;;;50.50;41.75;;;;;;;;4989111;28;45360;-72
2021/09/22 06:16:18;;;;;;;;;48.00;40.00;;;;;;;;4988451;28;45278;-71
2021/09/22 06:18:43;;;;;;;;;47.75;40.00;;;;;;;;4989879;28;45484;-71
2021/09/22 06:21:08;;;;;;;;;48.00;39.25;;;;;;;;4970647;28;47163;-71
2021/09/22 06:23:34;;;;;;;;;49.25;40.75;;;;;;;;4988752;28;45385;-72
2021/09/22 06:25:59;;;;;;;;;52.00;40.00;;;;;;;;4988896;28;45435;-71
2021/09/22 06:28:24;;;;;;;;;49.50;40.75;;;;;;;;4988508;28;45476;-70
2021/09/22 06:30:49;;;;;;;;;51.50;39.25;;;;;;;;4990294;28;46630;-70
2021/09/22 06:33:15;;;;;;;;;52.75;39.75;;;;;;;;4988352;28;45425;-70
2021/09/22 06:35:41;;;;;;;;;47.75;38.00;;;;;;;;4987966;28;45344;-74
2021/09/22 06:38:06;;;;;;;;;43.00;37.25;;;;;;;;4970925;28;45512;-69
2021/09/22 06:40:31;;;;;;;;;51.50;41.50;;;;;;;;4986580;28;46892;-70
2021/09/22 06:42:56;;;;;;;;;44.25;39.25;;;;;;;;4989882;28;45360;-71
2021/09/22 06:45:21;;;;;;;;;43.25;38.75;;;;;;;;4988736;28;45423;-72
2021/09/22 06:47:47;;;;;;;;;49.75;40.25;;;;;;;;4987330;28;45476;-69
2021/09/22 06:50:12;;;;;;;;;55.75;41.50;;;;;;;;4987648;28;46119;-72
2021/09/22 06:52:38;;;;;;;;;49.25;39.25;;;;;;;;4988793;28;45531;-71
2021/09/22 06:55:03;;;;;;;;;44.00;35.25;;;;;;;;4989116;28;45434;-71
2021/09/22 06:57:29;;;;;;;;;43.25;36.50;;;;;;;;4988734;28;45409;-70
2021/09/22 06:59:54;;;;;;;;;46.75;36.25;;;;;;;;4987478;28;45273;-71
2021/09/22 07:02:19;;;;;;;;;43.75;37.75;;;;;;;;4987649;28;45473;-71
2021/09/22 07:04:44;;;;;;;;;45.50;38.75;;;;;;;;4987469;28;45426;-72
2021/09/22 07:07:10;;;;;;;;;37.75;34.50;;;;;;;;4988465;28;45423;-70
2021/09/22 07:09:35;;;;;;;;;46.50;41.00;;;;;;;;4989667;28;46400;-71
2021/09/22 07:12:00;;;;;;;;;37.50;32.75;;;;;;;;4970172;28;45326;-72
2021/09/22 07:14:25;;;;;;;;;36.75;33.50;;;;;;;;4987583;28;45451;-70
2021/09/22 07:16:51;;;;;;;;;45.75;36.75;;;;;;;;4986838;28;45385;-71
2021/09/22 07:19:16;;;;;;;;;35.25;32.25;;;;;;;;4987842;28;45364;-70
2021/09/22 07:21:41;;;;;;;;;44.50;38.50;;;;;;;;4988515;28;45526;-70
2021/09/22 07:24:07;;;;;;;;;47.25;40.75;;;;;;;;4988348;28;45496;-70
2021/09/22 07:26:32;;;;;;;;;41.25;36.75;;;;;;;;4988271;28;45394;-71
2021/09/22 07:28:58;;;;;;;;;43.25;34.75;;;;;;;;4987532;28;45450;-70
2021/09/22 07:31:23;;;;;;;;;41.00;37.25;;;;;;;;4990337;28;45439;-71
2021/09/22 07:33:49;;;;;;;;;47.00;37.25;;;;;;;;4992685;28;45453;-69
2021/09/22 07:36:14;;;;;;;;;39.00;30.00;;;;;;;;4991249;28;45446;-71
2021/09/22 07:38:39;;;;;;;;;35.50;33.50;;;;;;;;4991034;28;45344;-69
2021/09/22 07:41:05;;;;;;;;;38.50;32.50;;;;;;;;4990985;28;45462;-71
2021/09/22 07:43:30;;;;;;;;;44.25;35.25;;;;;;;;4991228;28;45371;-70
2021/09/22 07:45:55;;;;;;;;;31.25;22.25;;;;;;;;4992625;28;45390;-71
2021/09/22 07:48:21;;;;;;;;;38.25;30.75;;;;;;;;4989919;28;47000;-71
2021/09/22 07:50:47;;;;;;;;;42.75;35.50;;;;;;;;4990464;28;46001;-70
2021/09/22 07:53:12;;;;;;;;;32.25;31.75;;;;;;;;4990438;28;45737;-70
2021/09/22 07:55:37;;;;;;;;;38.50;32.25;;;;;;;;4989515;28;45320;-69
2021/09/22 07:58:03;;;;;;;;;35.75;34.00;;;;;;;;4991874;28;45475;-70
2021/09/22 08:00:28;;;;;;;;;43.50;36.00;;;;;;;;4990373;28;45315;-69
2021/09/22 08:02:54;;;;;;;;;40.25;32.75;;;;;;;;4990207;28;45339;-71
2021/09/22 08:05:19;;;;;;;;;44.50;37.00;;;;;;;;4972386;28;45392;-70
2021/09/22 08:07:45;;;;;;;;;44.50;37.25;;;;;;;;4989977;28;45674;-71
2021/09/22 08:10:11;;;;;;;;;41.75;35.25;;;;;;;;4990049;28;45345;-71
2021/09/22 08:12:36;;;;;;;;;35.00;30.50;;;;;;;;4990062;28;45162;-70
2021/09/22 08:15:01;;;;;;;;;43.50;34.75;;;;;;;;4990492;28;45457;-70
2021/09/22 08:17:27;;;;;;;;;44.75;35.00;;;;;;;;4989562;28;46408;-70
2021/09/22 08:19:52;;;;;;;;;42.50;35.25;;;;;;;;4972758;28;45422;-69
2021/09/22 08:22:18;;;;;;;;;40.75;30.25;;;;;;;;4990157;28;45464;-70
2021/09/22 08:24:43;;;;;;;;;42.00;36.50;;;;;;;;4992759;28;45444;-70
2021/09/22 08:27:09;;;;;;;;;34.75;31.00;;;;;;;;4989560;28;46490;-70
2021/09/22 08:29:34;;;;;;;;;43.50;36.75;;;;;;;;4989909;28;45468;-70
2021/09/22 08:31:59;;;;;;;;;40.75;36.25;;;;;;;;4971854;28;45370;-69
2021/09/22 08:34:25;;;;;;;;;38.00;32.25;;;;;;;;4989637;28;45436;-70
2021/09/22 08:36:50;;;;;;;;;40.75;30.75;;;;;;;;4991807;28;45597;-70
2021/09/22 08:39:16;;;;;;;;;37.75;34.25;;;;;;;;4988069;28;45490;-70
2021/09/22 08:41:42;;;;;;;;;49.25;38.50;;;;;;;;4988368;28;45360;-71
2021/09/22 08:44:08;;;;;;;;;41.00;33.50;;;;;;;;4989770;28;45507;-69
2021/09/22 08:46:34;;;;;;;;;44.50;35.75;;;;;;;;4989623;28;46462;-70
2021/09/22 08:49:00;;;;;;;;;43.75;33.75;;;;;;;;4991459;28;45411;-69
2021/09/22 08:51:25;;;;;;;;;39.75;34.50;;;;;;;;4990968;28;45469;-71
2021/09/22 08:53:51;;;;;;;;;38.25;32.50;;;;;;;;4989346;28;45285;-70
2021/09/22 08:56:16;;;;;;;;;40.50;33.75;;;;;;;;4989674;28;46320;-70
2021/09/22 08:58:41;;;;;;;;;42.50;34.25;;;;;;;;4989860;28;46769;-69
2021/09/22 09:01:11;;;;;;;;;40.75;35.50;;;;;;;;4990022;28;45374;-70
2021/09/22 09:03:41;;;;;;;;;29.75;28.00;;;;;;;;4990080;28;45400;-70
2021/09/22 09:06:25;;;;;;;;;46.75;38.75;;;;;;;;4989751;28;46320;-70
2021/09/22 09:08:55;;;;;;;;;41.50;33.75;;;;;;;;4989729;28;45233;-70
2021/09/22 09:11:31;;;;;;;;;38.00;32.00;;;;;;;;4972178;28;45423;-71
2021/09/22 09:13:57;;;;;;;;;30.00;30.00;;;;;;;;4987972;28;45487;-70
2021/09/22 09:16:23;;;;;;;;;42.50;37.25;;;;;;;;4988533;28;46073;-70
2021/09/22 09:18:50;;;;;;;;;36.25;33.75;;;;;;;;4991274;28;45411;-70
2021/09/22 09:21:16;;;;;;;;;28.25;27.25;;;;;;;;4989725;28;45269;-70
2021/09/22 09:24:07;;;;;;;;;38.75;32.00;;;;;;;;4989828;28;45182;-71
2021/09/22 09:26:33;;;;;;;;;35.00;31.75;;;;;;;;4984709;28;45496;-70
2021/09/22 09:28:58;;;;;;;;;27.00;25.25;;;;;;;;4988997;28;45497;-70
2021/09/22 09:31:30;;;;;;;;;30.50;27.50;;;;;;;;4989782;28;45428;-69
2021/09/22 09:33:56;;;;;;;;;32.50;27.25;;;;;;;;4987690;28;45407;-69
2021/09/22 09:36:23;;;;;;;;;29.75;22.25;;;;;;;;4987324;28;46551;-70
2021/09/22 09:38:48;;;;;;;;;31.25;24.75;;;;;;;;4989183;28;45359;-70
2021/09/22 09:41:21;;;;;;;;;28.75;25.00;;;;;;;;4989393;28;45441;-71
2021/09/22 09:43:47;;;;;;;;;29.50;29.50;;;;;;;;4988942;28;45420;-70
2021/09/22 09:46:17;;;;;;;;;27.75;27.50;;;;;;;;4989009;28;46176;-71
2021/09/22 09:48:43;;;;;;;;;27.25;23.75;;;;;;;;4990916;28;45331;-71
2021/09/22 09:51:11;;;;;;;;;29.25;24.50;;;;;;;;4989097;28;45453;-71
2021/09/22 09:53:36;;;;;;;;;26.75;24.00;;;;;;;;4987416;28;45283;-69
2021/09/22 09:56:02;;;;;;;;;27.50;25.75;;;;;;;;4988284;28;46362;-69
2021/09/22 09:58:28;;;;;;;;;26.00;24.00;;;;;;;;4989134;28;45478;-70
2021/09/22 10:00:54;;;;;;;;;24.00;22.25;;;;;;;;4987069;28;45390;-71
2021/09/22 10:03:21;;;;;;;;;23.25;21.25;;;;;;;;4988686;28;45478;-69
2021/09/22 10:05:47;;;;;;;;;22.50;20.50;;;;;;;;4985608;28;46464;-70
2021/09/22 10:08:13;;;;;;;;;27.75;24.00;;;;;;;;4988690;28;45307;-69
2021/09/22 10:10:40;;;;;;;;;23.25;21.00;;;;;;;;4988593;28;47179;-70
2021/09/22 10:13:06;;;;;;;;;32.00;26.75;;;;;;;;4988639;28;45423;-70
2021/09/22 10:15:33;;;;;;;;;25.75;22.00;;;;;;;;4984763;27;46540;-70
2021/09/22 10:17:59;;;;;;;;;25.75;24.00;;;;;;;;4986480;28;45409;-70
2021/09/22 10:20:24;;;;;;;;;24.25;21.00;;;;;;;;4988219;28;45416;-69
2021/09/22 10:22:49;;;;;;;;;19.50;17.75;;;;;;;;4988762;28;45366;-68
2021/09/22 10:25:18;;;;;;;;;23.00;19.75;;;;;;;;4987243;28;46312;-70
2021/09/22 10:27:46;;;;;;;;;24.00;21.50;;;;;;;;4989051;28;45443;-71
2021/09/22 10:30:13;;;;;;;;;25.50;22.50;;;;;;;;4986545;28;45397;-71
2021/09/22 10:32:42;;;;;;;;;21.25;21.00;;;;;;;;4986004;28;45495;-72
2021/09/22 10:35:26;;;;;;;;;38.75;32.50;;;;;;;;4985808;28;47299;-73
2021/09/22 10:37:51;;;;;;;;;20.75;18.00;;;;;;;;4986128;28;45313;-71
2021/09/22 10:40:17;;;;;;;;;22.25;22.25;;;;;;;;4987822;28;45690;-72
2021/09/22 10:42:44;;;;;;;;;24.75;22.75;;;;;;;;4989679;28;45272;-72
2021/09/22 10:45:14;;;;;;;;;22.00;18.00;;;;;;;;4987176;28;46968;-73
2021/09/22 10:47:39;;;;;;;;;12.25;12.25;;;;;;;;4986937;28;45376;-72
2021/09/22 10:50:04;;;;;;;;;13.50;13.00;;;;;;;;4987358;28;45386;-72
2021/09/22 10:52:36;;;;;;;;;16.25;15.00;;;;;;;;4987835;28;45323;-72
2021/09/22 10:55:04;;;;;;;;;23.75;23.25;;;;;;;;4988689;28;46967;-72
2021/09/22 10:57:30;;;;;;;;;15.00;13.75;;;;;;;;4988235;28;45298;-72
2021/09/22 11:00:07;;;;;;;;;24.00;21.75;;;;;;;;4988204;28;45498;-72
2021/09/22 11:02:44;;;;;;;;;23.50;22.50;;;;;;;;4987626;28;45413;-72
2021/09/22 11:05:13;;;;;;;;;17.00;14.25;;;;;;;;4987640;28;46456;-73
2021/09/22 11:07:55;;;;;;;;;20.75;19.00;;;;;;;;4989091;28;45504;-73
2021/09/22 11:10:32;;;;;;;;;19.50;17.50;;;;;;;;4989542;28;45441;-72
2021/09/22 11:13:16;;;;;;;;;20.25;18.75;;;;;;;;4988820;28;45334;-71
2021/09/22 11:15:42;;;;;;;;;18.75;17.75;;;;;;;;4990598;28;46171;-72
2021/09/22 11:18:08;;;;;;;;;11.25;11.00;;;;;;;;4989585;28;45390;-71
2021/09/22 11:20:33;;;;;;;;;13.75;13.75;;;;;;;;4990375;28;45802;-71
2021/09/22 11:23:05;;;;;;;;;15.25;14.25;;;;;;;;4989846;28;45362;-71
2021/09/22 11:25:31;;;;;;;;;17.75;15.00;;;;;;;;4975497;28;46999;-72
2021/09/22 11:28:06;;;;;;;;;12.50;11.00;;;;;;;;4992442;28;45411;-71
2021/09/22 11:30:31;;;;;;;;;7.25;6.25;;;;;;;;4973272;28;45339;-71
2021/09/22 11:32:57;;;;;;;;;8.50;8.50;;;;;;;;4989522;28;45471;-72
2021/09/22 11:35:22;;;;;;;;;15.50;15.50;;;;;;;;4990036;28;49677;-71
2021/09/22 11:37:52;;;;;;;;;9.75;9.75;;;;;;;;4989978;28;45573;-72
2021/09/22 11:40:19;;;;;;;;;13.50;12.00;;;;;;;;4990098;28;45245;-74
2021/09/22 11:42:54;;;;;;;;;9.00;7.67;;;;;;;;4992323;28;45412;-71
2021/09/22 11:45:20;;;;;;;;;6.33;6.33;;;;;;;;4989722;28;47153;-71
2021/09/22 11:47:46;;;;;;;;;8.25;8.25;;;;;;;;4989614;28;45386;-72
2021/09/22 11:50:11;;;;;;;;;8.75;8.75;;;;;;;;4987950;28;45688;-73
2021/09/22 11:52:45;;;;;;;;;16.50;16.50;;;;;;;;4988892;28;45482;-72
2021/09/22 11:55:11;;;;;;;;;9.75;9.75;;;;;;;;4989609;28;46384;-71
2021/09/22 11:57:36;;;;;;;;;16.50;15.75;;;;;;;;4991712;27;45335;-72
2021/09/22 12:00:01;;;;;;;;;14.25;14.25;;;;;;;;4989576;28;45465;-71
2021/09/22 12:02:28;;;;;;;;;14.25;12.00;;;;;;;;4990055;28;45443;-73
2021/09/22 12:04:56;;;;;;;;;16.50;12.00;;;;;;;;4972064;28;46238;-72
2021/09/22 12:07:28;;;;;;;;;19.00;18.00;;;;;;;;4989670;28;45364;-71
2021/09/22 12:09:58;;;;;;;;;13.50;10.50;;;;;;;;4991426;28;45442;-71
2021/09/22 12:12:23;;;;;;;;;8.75;8.25;;;;;;;;4990365;28;45461;-70
2021/09/22 12:14:52;;;;;;;;;12.00;12.00;;;;;;;;4989509;28;47123;-69
2021/09/22 12:17:19;;;;;;;;;10.25;9.75;;;;;;;;4988218;28;45464;-70
2021/09/22 12:19:45;;;;;;;;;7.75;7.75;;;;;;;;4989092;28;45399;-70
2021/09/22 12:22:11;;;;;;;;;9.50;9.00;;;;;;;;4990014;28;45358;-71
2021/09/22 12:24:38;;;;;;;;;12.50;10.25;;;;;;;;4991965;28;45411;-70
2021/09/22 12:27:03;;;;;;;;;7.50;7.25;;;;;;;;4990211;28;45433;-70
2021/09/22 12:29:28;;;;;;;;;11.25;9.50;;;;;;;;4988903;28;45358;-70
2021/09/22 12:31:54;;;;;;;;;7.00;5.50;;;;;;;;4970829;28;45316;-70
2021/09/22 12:34:23;;;;;;;;;5.25;4.75;;;;;;;;4990120;28;45407;-70
2021/09/22 12:36:50;;;;;;;;;9.00;6.50;;;;;;;;4991905;28;45322;-70
2021/09/22 12:39:16;;;;;;;;;7.00;6.50;;;;;;;;4990185;28;45399;-71
2021/09/22 12:41:58;;;;;;;;;5.25;5.25;;;;;;;;4990447;28;45521;-69
2021/09/22 12:44:23;;;;;;;;;12.25;9.50;;;;;;;;4990233;28;45644;-71
2021/09/22 12:46:49;;;;;;;;;8.50;7.75;;;;;;;;4990048;28;45389;-68
2021/09/22 12:49:19;;;;;;;;;4.25;4.25;;;;;;;;4989986;28;45666;-70
2021/09/22 12:51:48;;;;;;;;;6.00;5.00;;;;;;;;4991783;28;45439;-70
2021/09/22 12:54:14;;;;;;;;;4.00;4.00;;;;;;;;4989933;28;45940;-70
2021/09/22 12:56:40;;;;;;;;;6.75;5.75;;;;;;;;4989846;28;45351;-70
2021/09/22 12:59:25;;;;;;;;;6.25;5.75;;;;;;;;4989540;28;45292;-70
2021/09/22 13:01:50;;;;;;;;;9.50;8.50;;;;;;;;4989672;28;45418;-69
2021/09/22 13:04:26;;;;;;;;;11.50;9.25;;;;;;;;4989011;28;45557;-70
2021/09/22 13:06:55;;;;;;;;;6.25;4.75;;;;;;;;4991663;28;45398;-71
2021/09/22 13:09:34;;;;;;;;;6.25;5.00;;;;;;;;4988575;28;45478;-71
2021/09/22 13:11:59;;;;;;;;;7.75;6.75;;;;;;;;4988304;28;45419;-70
2021/09/22 13:14:25;;;;;;;;;6.25;6.25;;;;;;;;4989326;27;46048;-70
2021/09/22 13:16:55;;;;;;;;;7.00;6.00;;;;;;;;4989563;28;45429;-70
2021/09/22 13:19:21;;;;;;;;;4.00;4.00;;;;;;;;4989124;28;45363;-70
2021/09/22 13:21:48;;;;;;;;;16.00;16.00;;;;;;;;4990995;28;45362;-71
2021/09/22 13:24:14;;;;;;;;;6.00;5.50;;;;;;;;4988762;28;45359;-71
2021/09/22 13:26:40;;;;;;;;;6.25;6.25;;;;;;;;4989191;28;45466;-71
2021/09/22 13:29:07;;;;;;;;;6.00;6.00;;;;;;;;4988283;28;45504;-72
2021/09/22 13:31:34;;;;;;;;;5.25;5.25;;;;;;;;4989672;28;45336;-72
2021/09/22 13:33:59;;;;;;;;;4.75;4.00;;;;;;;;4990962;28;45383;-73
2021/09/22 13:36:25;;;;;;;;;8.75;7.25;;;;;;;;4988753;28;45386;-74
2021/09/22 13:38:51;;;;;;;;;6.00;6.00;;;;;;;;4988981;28;45419;-72
2021/09/22 13:41:16;;;;;;;;;8.25;6.00;;;;;;;;4989516;28;45382;-72
2021/09/22 13:43:42;;;;;;;;;6.00;5.00;;;;;;;;4989382;28;45943;-73
2021/09/22 13:46:07;;;;;;;;;5.00;5.00;;;;;;;;4989813;28;45439;-72
2021/09/22 13:48:32;;;;;;;;;5.75;5.75;;;;;;;;4988997;28;45333;-72
2021/09/22 13:50:57;;;;;;;;;6.50;6.50;;;;;;;;4987255;28;45403;-72
2021/09/22 13:53:23;;;;;;;;;5.50;5.50;;;;;;;;4989179;28;45371;-72
2021/09/22 13:55:48;;;;;;;;;5.50;5.50;;;;;;;;4989116;28;45462;-72
2021/09/22 13:58:14;;;;;;;;;5.50;5.50;;;;;;;;4989138;28;45365;-72
2021/09/22 14:00:40;;;;;;;;;8.00;6.25;;;;;;;;4991031;28;45305;-71
2021/09/22 14:03:06;;;;;;;;;6.75;6.75;;;;;;;;4987937;28;46379;-71
2021/09/22 14:05:32;;;;;;;;;6.50;6.00;;;;;;;;4988282;28;45506;-71
2021/09/22 14:08:00;;;;;;;;;5.50;5.50;;;;;;;;4988481;28;45401;-71
2021/09/22 14:10:26;;;;;;;;;5.25;5.25;;;;;;;;4973640;28;45498;-71
2021/09/22 14:12:59;;;;;;;;;6.00;4.75;;;;;;;;4991030;28;45655;-72
2021/09/22 14:15:24;;;;;;;;;6.50;6.00;;;;;;;;4989133;28;45635;-72